createdAt,value
2023-04-30T00:01:49.293Z,16.43
2023-04-30T00:04:17.437Z,15.90
2023-04-30T00:06:45.466Z,15.50
2023-04-30T00:09:15.028Z,17.93
2023-04-30T00:11:43.224Z,13.85
2023-04-30T00:14:11.468Z,15.60
2023-04-30T00:16:39.559Z,13.90
2023-04-30T00:19:08.459Z,15.75
2023-04-30T00:21:36.594Z,14.97
2023-04-30T00:24:04.731Z,14.40
2023-04-30T00:26:34.556Z,15.23
2023-04-30T00:29:02.436Z,17.50
2023-04-30T00:31:30.236Z,15.57
2023-04-30T00:33:59.400Z,14.97
2023-04-30T00:36:27.250Z,15.77
2023-04-30T00:38:55.112Z,18.20
2023-04-30T00:41:24.505Z,14.63
2023-04-30T00:43:53.700Z,15.93
2023-04-30T00:46:21.540Z,14.97
2023-04-30T00:48:50.219Z,17.27
2023-04-30T00:51:18.198Z,19.30
2023-04-30T00:53:46.374Z,15.17
2023-04-30T00:56:16.738Z,17.90
2023-04-30T00:58:45.093Z,16.73
2023-04-30T01:01:15.411Z,16.37
2023-04-30T01:03:44.808Z,15.53
2023-04-30T01:06:12.950Z,17.53
2023-04-30T01:08:41.169Z,18.67
2023-04-30T01:11:23.509Z,18.43
2023-04-30T01:14:01.076Z,17.93
2023-04-30T01:16:37.073Z,18.63
2023-04-30T01:19:18.961Z,18.20
2023-04-30T01:21:48.272Z,17.93
2023-04-30T01:24:45.050Z,16.20
2023-04-30T01:27:25.106Z,17.13
2023-04-30T01:29:56.366Z,18.73
2023-04-30T01:32:24.605Z,15.00
2023-04-30T01:34:52.455Z,14.57
2023-04-30T01:37:26.214Z,17.60
2023-04-30T01:40:09.725Z,15.20
2023-04-30T01:42:46.531Z,15.37
2023-04-30T01:45:31.618Z,15.87
2023-04-30T01:48:08.278Z,14.17
2023-04-30T01:50:43.652Z,17.00
2023-04-30T01:53:18.072Z,15.53
2023-04-30T01:55:52.530Z,15.43
2023-04-30T01:58:23.880Z,16.83
2023-04-30T02:00:53.593Z,16.10
2023-04-30T02:03:21.671Z,12.83
2023-04-30T02:05:50.084Z,14.63
2023-04-30T02:08:17.946Z,16.13
2023-04-30T02:10:45.858Z,13.57
2023-04-30T02:13:13.827Z,12.10
2023-04-30T02:15:41.789Z,13.80
2023-04-30T02:18:11.155Z,16.37
2023-04-30T02:20:39.056Z,14.07
2023-04-30T02:23:06.949Z,17.67
2023-04-30T02:25:38.039Z,16.00
2023-04-30T02:28:06.361Z,15.27
2023-04-30T02:30:34.281Z,14.17
2023-04-30T02:33:02.865Z,13.43
2023-04-30T02:35:32.155Z,15.60
2023-04-30T02:38:00.136Z,13.87
2023-04-30T02:40:28.038Z,12.83
2023-04-30T02:42:56.894Z,13.00
2023-04-30T02:45:24.790Z,13.57
2023-04-30T02:47:52.739Z,13.20
2023-04-30T02:50:20.687Z,14.17
2023-04-30T02:52:49.896Z,12.70
2023-04-30T02:55:18.025Z,13.33
2023-04-30T02:57:45.888Z,12.07
2023-04-30T03:00:14.866Z,12.73
2023-04-30T03:02:42.815Z,13.73
2023-04-30T03:05:10.939Z,15.37
2023-04-30T03:07:38.764Z,12.80
2023-04-30T03:10:09.510Z,14.07
2023-04-30T03:12:37.448Z,14.27
2023-04-30T03:15:06.566Z,12.00
2023-04-30T03:17:34.836Z,11.17
2023-04-30T03:20:02.770Z,12.03
2023-04-30T03:22:31.192Z,11.97
2023-04-30T03:24:59.041Z,9.87
2023-04-30T03:27:28.318Z,10.23
2023-04-30T03:29:56.358Z,10.63
2023-04-30T03:32:24.522Z,10.17
2023-04-30T03:34:52.383Z,11.53
2023-04-30T03:37:20.296Z,11.93
2023-04-30T03:39:48.140Z,11.43
2023-04-30T03:42:16.081Z,13.57
2023-04-30T03:44:45.397Z,10.70
2023-04-30T03:47:13.218Z,11.60
2023-04-30T03:49:41.050Z,11.33
2023-04-30T03:52:08.869Z,10.70
2023-04-30T03:54:36.744Z,8.60
2023-04-30T03:57:05.769Z,7.57
2023-04-30T03:59:33.729Z,7.93
2023-04-30T04:02:03.064Z,7.70
2023-04-30T04:04:31.383Z,9.37
2023-04-30T04:06:59.279Z,6.30
2023-04-30T04:09:27.387Z,9.23
2023-04-30T04:11:55.708Z,7.13
2023-04-30T04:14:23.658Z,9.10
2023-04-30T04:16:51.752Z,7.73
2023-04-30T04:19:20.989Z,7.40
2023-04-30T04:21:48.794Z,6.57
2023-04-30T04:24:16.686Z,5.67
2023-04-30T04:26:46.626Z,10.40
2023-04-30T04:29:15.840Z,7.63
2023-04-30T04:31:43.705Z,7.33
2023-04-30T04:34:11.708Z,5.33
2023-04-30T04:36:41.816Z,7.37
2023-04-30T04:39:09.807Z,7.30
2023-04-30T04:41:37.900Z,6.73
2023-04-30T04:44:06.383Z,8.07
2023-04-30T04:46:38.001Z,6.20
2023-04-30T04:49:05.931Z,7.93
2023-04-30T04:51:33.890Z,8.43
2023-04-30T04:54:03.833Z,7.27
2023-04-30T04:56:31.740Z,8.77
2023-04-30T04:58:59.955Z,5.93
2023-04-30T05:01:27.815Z,9.27
2023-04-30T05:03:55.798Z,7.57
2023-04-30T05:06:23.815Z,5.67
2023-04-30T05:08:51.693Z,7.17
2023-04-30T05:11:22.296Z,10.23
2023-04-30T05:13:50.134Z,7.83
2023-04-30T05:16:18.099Z,8.80
2023-04-30T05:18:46.059Z,10.43
2023-04-30T05:21:13.892Z,12.20
2023-04-30T05:23:41.707Z,9.30
2023-04-30T05:26:09.555Z,8.93
2023-04-30T05:28:38.789Z,8.90
2023-04-30T05:31:06.833Z,8.87
2023-04-30T05:33:34.851Z,9.77
2023-04-30T05:36:02.744Z,11.97
2023-04-30T05:38:30.598Z,11.13
2023-04-30T05:40:58.425Z,11.10
2023-04-30T05:43:28.625Z,8.80
2023-04-30T05:45:57.884Z,12.83
2023-04-30T05:48:26.553Z,11.50
2023-04-30T05:50:54.814Z,10.23
2023-04-30T05:53:22.718Z,13.10
2023-04-30T05:55:50.670Z,9.23
2023-04-30T05:58:18.534Z,12.90
2023-04-30T06:00:49.764Z,9.43
2023-04-30T06:03:19.773Z,12.93
2023-04-30T06:05:48.294Z,10.87
2023-04-30T06:08:16.294Z,12.20
2023-04-30T06:10:44.313Z,13.67
2023-04-30T06:13:12.421Z,10.53
2023-04-30T06:15:40.257Z,11.97
2023-04-30T06:18:08.561Z,12.27
2023-04-30T06:20:37.913Z,10.30
2023-04-30T06:23:05.756Z,13.50
2023-04-30T06:25:33.736Z,10.10
2023-04-30T06:28:01.806Z,10.90
2023-04-30T06:30:31.572Z,8.90
2023-04-30T06:32:59.534Z,8.07
2023-04-30T06:35:27.480Z,7.88
2023-04-30T06:37:56.663Z,9.05
2023-04-30T06:40:24.782Z,8.20
2023-04-30T06:42:54.481Z,10.75
2023-04-30T06:45:22.539Z,8.23
2023-04-30T06:47:51.863Z,8.13
2023-04-30T06:50:21.501Z,7.30
2023-04-30T06:52:49.703Z,7.45
2023-04-30T06:55:19.014Z,6.55
2023-04-30T06:57:47.079Z,4.22
2023-04-30T07:00:15.775Z,6.05
2023-04-30T07:02:43.876Z,6.00
2023-04-30T07:05:13.226Z,5.45
2023-04-30T07:07:41.019Z,4.45
2023-04-30T07:10:09.763Z,3.85
2023-04-30T07:12:39.282Z,7.22
2023-04-30T07:15:08.230Z,4.65
2023-04-30T07:17:36.371Z,5.53
2023-04-30T07:20:05.450Z,8.90
2023-04-30T07:22:33.517Z,5.07
2023-04-30T07:25:01.768Z,4.45
2023-04-30T07:27:29.774Z,5.53
2023-04-30T07:29:59.090Z,6.97
2023-04-30T07:32:27.535Z,4.53
2023-04-30T07:34:55.554Z,7.07
2023-04-30T07:37:23.428Z,5.25
2023-04-30T07:39:51.324Z,3.75
2023-04-30T07:42:19.305Z,4.45
2023-04-30T07:44:48.953Z,5.75
2023-04-30T07:47:18.597Z,4.05
2023-04-30T07:49:47.190Z,4.65
2023-04-30T07:52:15.353Z,3.97
2023-04-30T07:54:43.231Z,2.65
2023-04-30T07:57:11.169Z,4.90
2023-04-30T07:59:39.162Z,4.65
2023-04-30T08:02:07.116Z,5.10
2023-04-30T08:04:36.408Z,6.13
2023-04-30T08:07:04.665Z,3.05
2023-04-30T08:09:32.804Z,3.22
2023-04-30T08:12:02.043Z,5.25
2023-04-30T08:14:29.867Z,3.80
2023-04-30T08:16:59.537Z,4.47
2023-04-30T08:19:27.504Z,3.58
2023-04-30T08:21:57.237Z,4.90
2023-04-30T08:24:25.077Z,5.63
2023-04-30T08:26:54.717Z,2.45
2023-04-30T08:29:22.763Z,3.83
2023-04-30T08:31:50.820Z,4.30
2023-04-30T08:34:18.949Z,4.38
2023-04-30T08:36:46.936Z,4.35
2023-04-30T08:39:16.717Z,4.00
2023-04-30T08:41:48.093Z,2.90
2023-04-30T08:44:16.038Z,6.05
2023-04-30T08:46:44.939Z,3.88
2023-04-30T08:49:12.848Z,3.53
2023-04-30T08:51:41.224Z,4.60
2023-04-30T08:54:13.748Z,3.90
2023-04-30T08:56:43.074Z,3.17
2023-04-30T08:59:11.099Z,5.13
2023-04-30T09:01:39.082Z,5.00
2023-04-30T09:04:07.902Z,3.03
2023-04-30T09:06:35.996Z,2.85
2023-04-30T09:09:11.803Z,2.95
2023-04-30T09:11:40.672Z,3.10
2023-04-30T09:14:10.415Z,2.40
2023-04-30T09:16:49.519Z,3.78
2023-04-30T09:19:27.486Z,3.53
2023-04-30T09:21:55.729Z,4.28
2023-04-30T09:24:24.460Z,4.30
2023-04-30T09:26:52.908Z,4.43
2023-04-30T09:29:22.731Z,3.72
2023-04-30T09:31:51.089Z,3.28
2023-04-30T09:34:19.114Z,3.25
2023-04-30T09:36:55.137Z,2.60
2023-04-30T09:39:23.472Z,3.28
2023-04-30T09:41:52.684Z,1.85
2023-04-30T09:44:32.851Z,4.63
2023-04-30T09:47:00.912Z,3.67
2023-04-30T09:49:28.918Z,3.30
2023-04-30T09:51:57.795Z,3.30
2023-04-30T09:54:28.123Z,3.20
2023-04-30T09:56:58.150Z,3.30
2023-04-30T09:59:32.121Z,1.85
2023-04-30T10:02:01.971Z,2.05
2023-04-30T10:04:33.479Z,2.80
2023-04-30T10:07:05.065Z,4.03
2023-04-30T10:09:39.797Z,2.67
2023-04-30T10:12:14.060Z,2.60
2023-04-30T10:14:49.247Z,3.65
2023-04-30T10:17:18.726Z,5.63
2023-04-30T10:19:49.736Z,3.40
2023-04-30T10:22:18.437Z,5.38
2023-04-30T10:24:47.218Z,4.20
2023-04-30T10:27:15.307Z,2.08
2023-04-30T10:29:45.991Z,3.40
2023-04-30T10:32:15.284Z,1.80
2023-04-30T10:35:07.449Z,3.85
2023-04-30T10:37:41.285Z,2.63
2023-04-30T10:40:10.115Z,2.35
2023-04-30T10:42:38.801Z,2.65
2023-04-30T10:45:11.743Z,3.35
2023-04-30T10:47:45.625Z,2.22
2023-04-30T10:50:13.931Z,3.80
2023-04-30T10:52:41.844Z,2.05
2023-04-30T10:55:10.899Z,3.17
2023-04-30T10:57:43.920Z,3.25
2023-04-30T11:00:27.957Z,3.25
2023-04-30T11:03:04.164Z,4.88
2023-04-30T11:05:37.582Z,2.03
2023-04-30T11:08:06.356Z,2.70
2023-04-30T11:10:36.843Z,2.55
2023-04-30T11:13:06.622Z,5.20
2023-04-30T11:15:41.903Z,3.55
2023-04-30T11:18:10.845Z,3.85
2023-04-30T11:20:41.928Z,2.05
2023-04-30T11:23:11.386Z,2.10
2023-04-30T11:25:43.882Z,1.63
2023-04-30T11:28:17.815Z,1.90
2023-04-30T11:30:54.479Z,1.48
2023-04-30T11:33:24.954Z,2.92
2023-04-30T11:35:53.754Z,1.65
2023-04-30T11:38:23.246Z,4.45
2023-04-30T11:40:52.483Z,4.47
2023-04-30T11:43:27.367Z,1.63
2023-04-30T11:46:08.565Z,1.90
2023-04-30T11:48:37.749Z,2.05
2023-04-30T11:51:07.321Z,1.23
2023-04-30T11:53:35.300Z,3.33
2023-04-30T11:56:07.250Z,2.85
2023-04-30T11:58:37.965Z,2.65
2023-04-30T12:01:09.777Z,2.13
2023-04-30T12:03:44.976Z,2.58
2023-04-30T12:06:14.240Z,2.17
2023-04-30T12:08:43.125Z,1.83
2023-04-30T12:11:25.912Z,1.48
2023-04-30T12:13:58.899Z,2.85
2023-04-30T12:16:30.355Z,2.70
2023-04-30T12:18:58.241Z,2.63
2023-04-30T12:21:26.180Z,1.30
2023-04-30T12:23:54.470Z,5.28
2023-04-30T12:26:22.341Z,2.65
2023-04-30T12:28:50.809Z,5.05
2023-04-30T12:31:19.308Z,3.65
2023-04-30T12:33:56.553Z,5.90
2023-04-30T12:36:31.672Z,1.45
2023-04-30T12:39:09.574Z,3.83
2023-04-30T12:41:39.348Z,2.63
2023-04-30T12:44:17.915Z,1.50
2023-04-30T12:46:46.873Z,1.63
2023-04-30T12:49:25.898Z,2.13
2023-04-30T12:51:57.819Z,1.40
2023-04-30T12:54:30.015Z,2.22
2023-04-30T12:57:00.188Z,2.90
2023-04-30T12:59:30.477Z,5.45
2023-04-30T13:02:08.238Z,3.28
2023-04-30T13:04:37.794Z,5.72
2023-04-30T13:07:05.748Z,2.90
2023-04-30T13:09:34.606Z,3.33
2023-04-30T13:12:02.844Z,2.00
2023-04-30T13:14:30.914Z,2.17
2023-04-30T13:16:58.826Z,1.35
2023-04-30T13:19:26.963Z,4.53
2023-04-30T13:21:56.455Z,2.75
2023-04-30T13:24:24.698Z,1.45
2023-04-30T13:26:52.535Z,3.53
2023-04-30T13:29:21.132Z,1.17
2023-04-30T13:31:49.338Z,3.63
2023-04-30T13:34:17.427Z,5.68
2023-04-30T13:36:46.847Z,2.40
2023-04-30T13:39:16.376Z,6.57
2023-04-30T13:41:45.090Z,1.42
2023-04-30T13:44:12.900Z,2.00
2023-04-30T13:46:40.950Z,3.13
2023-04-30T13:49:08.935Z,2.00
2023-04-30T13:51:36.860Z,2.13
2023-04-30T13:54:04.778Z,2.42
2023-04-30T13:56:34.087Z,1.42
2023-04-30T13:59:02.350Z,1.88
2023-04-30T14:01:31.393Z,3.45
2023-04-30T14:03:59.318Z,1.90
2023-04-30T14:06:29.620Z,3.22
2023-04-30T14:08:57.611Z,2.88
2023-04-30T14:11:25.879Z,5.95
2023-04-30T14:13:55.501Z,2.25
2023-04-30T14:16:23.625Z,1.55
2023-04-30T14:18:51.505Z,2.60
2023-04-30T14:21:19.407Z,2.17
2023-04-30T14:23:47.688Z,2.15
2023-04-30T14:26:16.303Z,2.50
2023-04-30T14:28:44.199Z,2.08
2023-04-30T14:31:13.433Z,3.20
2023-04-30T14:33:41.469Z,4.33
2023-04-30T14:36:09.590Z,4.47
2023-04-30T14:38:37.513Z,2.77
2023-04-30T14:41:05.499Z,3.07
2023-04-30T14:43:33.358Z,3.22
2023-04-30T14:46:01.598Z,3.60
2023-04-30T14:48:30.818Z,1.93
2023-04-30T14:50:58.682Z,4.60
2023-04-30T14:53:26.554Z,1.60
2023-04-30T14:55:54.529Z,3.67
2023-04-30T14:58:22.388Z,2.92
2023-04-30T15:00:51.224Z,2.40
2023-04-30T15:03:19.431Z,2.23
2023-04-30T15:05:49.966Z,2.43
2023-04-30T15:08:17.929Z,1.63
2023-04-30T15:10:46.024Z,3.58
2023-04-30T15:13:14.328Z,3.83
2023-04-30T15:15:43.162Z,2.60
2023-04-30T15:18:11.280Z,2.63
2023-04-30T15:20:39.202Z,2.87
2023-04-30T15:23:08.503Z,3.83
2023-04-30T15:25:36.520Z,3.05
2023-04-30T15:28:04.773Z,3.90
2023-04-30T15:30:32.635Z,1.90
2023-04-30T15:33:00.581Z,3.47
2023-04-30T15:35:28.757Z,1.43
2023-04-30T15:37:56.662Z,2.03
2023-04-30T15:40:26.072Z,1.97
2023-04-30T15:42:54.021Z,2.47
2023-04-30T15:45:21.915Z,1.35
2023-04-30T15:47:49.837Z,1.97
2023-04-30T15:50:17.936Z,1.83
2023-04-30T15:52:46.010Z,3.00
2023-04-30T15:55:13.950Z,3.33
2023-04-30T15:57:43.181Z,2.30
2023-04-30T16:00:14.582Z,2.83
2023-04-30T16:02:42.692Z,2.63
2023-04-30T16:05:11.889Z,1.88
2023-04-30T16:07:41.341Z,3.20
2023-04-30T16:10:11.771Z,2.50
2023-04-30T16:12:39.608Z,4.60
2023-04-30T16:15:10.861Z,2.95
2023-04-30T16:17:38.803Z,3.33
2023-04-30T16:20:08.497Z,2.07
2023-04-30T16:22:37.372Z,4.73
2023-04-30T16:25:07.745Z,4.87
2023-04-30T16:27:37.428Z,2.55
2023-04-30T16:30:06.713Z,6.47
2023-04-30T16:32:36.041Z,1.23
2023-04-30T16:35:03.937Z,4.40
2023-04-30T16:37:31.909Z,2.73
2023-04-30T16:40:01.612Z,4.10
2023-04-30T16:42:30.150Z,2.00
2023-04-30T16:44:58.134Z,2.40
2023-04-30T16:47:26.282Z,1.50
2023-04-30T16:49:56.350Z,2.87
2023-04-30T16:52:24.723Z,1.97
2023-04-30T16:54:52.649Z,2.80
2023-04-30T16:57:21.172Z,3.43
2023-04-30T16:59:49.018Z,1.47
2023-04-30T17:02:16.919Z,2.77
2023-04-30T17:04:44.930Z,2.83
2023-04-30T17:07:14.209Z,7.10
2023-04-30T17:09:42.240Z,3.90
2023-04-30T17:12:10.176Z,2.57
2023-04-30T17:14:38.318Z,2.23
2023-04-30T17:17:06.595Z,4.83
2023-04-30T17:19:34.667Z,1.57
2023-04-30T17:22:02.740Z,3.60
2023-04-30T17:24:31.947Z,4.70
2023-04-30T17:27:01.031Z,3.20
2023-04-30T17:29:28.971Z,1.90
2023-04-30T17:31:56.910Z,2.23
2023-04-30T17:34:25.195Z,3.03
2023-04-30T17:36:53.294Z,2.63
2023-04-30T17:39:21.183Z,1.63
2023-04-30T17:41:50.657Z,3.70
2023-04-30T17:44:19.519Z,3.20
2023-04-30T17:46:47.424Z,2.13
2023-04-30T17:49:15.403Z,2.17
2023-04-30T17:51:43.530Z,3.00
2023-04-30T17:54:11.509Z,2.70
2023-04-30T17:56:39.398Z,4.13
2023-04-30T17:59:09.089Z,4.77
2023-04-30T18:01:37.417Z,2.17
2023-04-30T18:04:08.934Z,7.73
2023-04-30T18:06:37.015Z,2.20
2023-04-30T18:09:05.120Z,3.30
2023-04-30T18:11:33.834Z,4.23
2023-04-30T18:14:02.195Z,4.50
2023-04-30T18:16:32.152Z,5.17
2023-04-30T18:19:00.105Z,2.90
2023-04-30T18:21:28.203Z,4.90
2023-04-30T18:23:56.239Z,4.93
2023-04-30T18:26:24.733Z,4.37
2023-04-30T18:28:52.982Z,4.77
2023-04-30T18:31:21.021Z,5.27
2023-04-30T18:33:50.381Z,2.93
2023-04-30T18:36:18.427Z,3.03
2023-04-30T18:38:46.434Z,4.23
2023-04-30T18:41:14.314Z,3.50
2023-04-30T18:43:42.863Z,4.33
2023-04-30T18:46:10.738Z,4.20
2023-04-30T18:48:38.761Z,4.40
2023-04-30T18:51:08.104Z,5.70
2023-04-30T18:53:37.466Z,4.00
2023-04-30T18:56:05.752Z,4.97
2023-04-30T18:58:33.731Z,4.27
2023-04-30T19:01:01.768Z,5.57
2023-04-30T19:03:30.435Z,4.83
2023-04-30T19:05:58.739Z,5.27
2023-04-30T19:08:28.039Z,6.17
2023-04-30T19:10:56.860Z,4.73
2023-04-30T19:13:24.773Z,4.83
2023-04-30T19:15:53.886Z,4.80
2023-04-30T19:18:24.519Z,3.73
2023-04-30T19:20:59.481Z,4.57
2023-04-30T19:23:30.376Z,8.47
2023-04-30T19:25:58.627Z,6.97
2023-04-30T19:28:26.798Z,6.53
2023-04-30T19:30:54.992Z,4.20
2023-04-30T19:33:23.078Z,5.37
2023-04-30T19:35:53.363Z,5.30
2023-04-30T19:38:22.060Z,6.73
2023-04-30T19:40:52.616Z,4.87
2023-04-30T19:43:21.069Z,8.10
2023-04-30T19:45:52.265Z,3.63
2023-04-30T19:48:21.078Z,4.83
2023-04-30T19:50:49.836Z,7.17
2023-04-30T19:53:18.583Z,6.80
2023-04-30T19:55:47.117Z,5.70
2023-04-30T19:58:16.421Z,5.10
2023-04-30T20:00:46.198Z,5.17
2023-04-30T20:03:15.229Z,4.60
2023-04-30T20:05:43.759Z,5.90
2023-04-30T20:08:11.724Z,8.13
2023-04-30T20:10:41.055Z,6.93
2023-04-30T20:13:10.358Z,3.50
2023-04-30T20:15:39.676Z,7.20
2023-04-30T20:18:07.535Z,6.43
2023-04-30T20:20:35.601Z,6.93
2023-04-30T20:23:13.998Z,7.90
2023-04-30T20:25:45.436Z,7.43
2023-04-30T20:28:13.578Z,6.73
2023-04-30T20:30:43.262Z,8.47
2023-04-30T20:33:11.326Z,6.60
2023-04-30T20:35:41.592Z,6.17
2023-04-30T20:38:09.694Z,5.50
2023-04-30T20:40:40.164Z,4.97
2023-04-30T20:43:08.683Z,3.87
2023-04-30T20:45:36.712Z,4.63
2023-04-30T20:48:06.645Z,17.93
2023-04-30T20:50:34.657Z,5.80
2023-04-30T20:53:02.886Z,5.23
2023-04-30T20:55:30.867Z,8.50
2023-04-30T20:57:58.708Z,5.23
2023-04-30T21:00:27.805Z,6.33
2023-04-30T21:02:55.996Z,9.57
2023-04-30T21:05:25.584Z,8.97
2023-04-30T21:07:53.609Z,5.80
2023-04-30T21:10:21.738Z,7.87
2023-04-30T21:12:49.612Z,7.77
2023-04-30T21:15:17.904Z,7.13
2023-04-30T21:17:46.075Z,6.50
2023-04-30T21:20:14.556Z,6.83
2023-04-30T21:22:43.777Z,5.33
2023-04-30T21:25:12.342Z,12.07
2023-04-30T21:27:40.504Z,11.57
2023-04-30T21:30:10.505Z,9.40
2023-04-30T21:32:39.117Z,6.10
2023-04-30T21:35:07.779Z,9.07
2023-04-30T21:37:36.387Z,6.23
2023-04-30T21:40:06.658Z,7.10
2023-04-30T21:42:34.988Z,7.47
2023-04-30T21:45:02.980Z,6.90
2023-04-30T21:47:31.783Z,14.57
2023-04-30T21:49:59.857Z,9.40
2023-04-30T21:52:27.699Z,7.70
2023-04-30T21:54:55.857Z,7.60
2023-04-30T21:57:25.284Z,8.73
2023-04-30T21:59:53.248Z,10.57
2023-04-30T22:02:24.162Z,9.77
2023-04-30T22:04:53.597Z,9.60
2023-04-30T22:07:21.510Z,12.20
2023-04-30T22:09:49.448Z,12.93
2023-04-30T22:12:19.265Z,9.63
2023-04-30T22:14:50.261Z,8.23
2023-04-30T22:17:18.109Z,12.93
2023-04-30T22:19:45.964Z,9.23
2023-04-30T22:22:13.820Z,11.00
2023-04-30T22:24:41.631Z,7.10
2023-04-30T22:27:09.619Z,10.03
2023-04-30T22:29:37.485Z,9.03
2023-04-30T22:32:09.149Z,7.43
2023-04-30T22:34:40.313Z,8.23
2023-04-30T22:37:10.558Z,8.17
2023-04-30T22:39:38.874Z,7.53
2023-04-30T22:42:07.107Z,7.60
2023-04-30T22:44:35.164Z,10.93
2023-04-30T22:47:03.741Z,7.43
2023-04-30T22:49:34.105Z,7.87
2023-04-30T22:52:02.031Z,7.23
2023-04-30T22:54:30.214Z,8.40
2023-04-30T22:56:58.518Z,9.30
2023-04-30T22:59:26.596Z,9.30
2023-04-30T23:01:54.575Z,6.47
2023-04-30T23:04:22.741Z,7.00
2023-04-30T23:06:52.154Z,7.13
2023-04-30T23:09:20.151Z,10.30
2023-04-30T23:11:48.413Z,7.90
2023-04-30T23:14:16.463Z,7.47
2023-04-30T23:16:44.542Z,7.63
2023-04-30T23:19:13.172Z,9.43
2023-04-30T23:21:41.111Z,8.97
2023-04-30T23:24:11.372Z,6.67
2023-04-30T23:26:39.460Z,8.13
2023-04-30T23:29:07.408Z,6.20
2023-04-30T23:31:35.373Z,8.03
2023-04-30T23:34:03.534Z,10.33
2023-04-30T23:36:31.409Z,9.83
2023-04-30T23:38:59.225Z,7.27
2023-04-30T23:41:28.525Z,8.67
2023-04-30T23:43:56.545Z,8.43
2023-04-30T23:46:25.081Z,9.90
2023-04-30T23:48:53.571Z,8.10
2023-04-30T23:51:22.695Z,7.27
2023-04-30T23:53:50.609Z,7.13
2023-04-30T23:56:18.519Z,6.30
2023-04-30T23:58:47.810Z,6.57
